Katalog artikala BUNJOgrupacija

Ukupno 81 aktivnih artikala (26.06.2019)
OLX ID SLIKA NAZIV CIJENA DATUM OBJAVE
34332046 TOYOTA YARIS 1.5 BENZIN  A/T TOYOTA YARIS 1.5 BENZIN A/T 24.490 KM 26.06.2019
34316780 TOYOTA VERSO 2.0 DIZEL M/T TOYOTA VERSO 2.0 DIZEL M/T 21.490 KM 25.06.2019
34305824 RENAULT MEGANE 1.5 DCI 2010 Dynamic ID :042 RENAULT MEGANE 1.5 DCI 2010 Dynamic ID :042 11.390 KM 24.06.2019
34287434 VW Passat 1.9 TDI 1997 M/T ID :033 VW Passat 1.9 TDI 1997 M/T ID :033 4.299 KM 22.06.2019
31257930 MV Agusta Brutale 1090 MV Agusta Brutale 1090 26.500 KM 21.06.2019
34195063 TOYOTA COROLLA SD 1.6 VVT- i  TOYOTA COROLLA SD 1.6 VVT- i "LUNA" M/T6 34.170 KM 21.06.2019
34200482 TOYOTA COROLLA 1.4 D "LUNA" M/T TOYOTA COROLLA 1.4 D "LUNA" M/T 23.900 KM 21.06.2019
31743322 Peugeot 207 1.4 HDI M/T ID :044 Peugeot 207 1.4 HDI M/T ID :044 7.390 KM 21.06.2019
31739728 ***AKCIJA SKODA FABIA 1.0MPI *** ID :005 ***AKCIJA SKODA FABIA 1.0MPI *** ID :005 15.490 KM 21.06.2019
34032455 RENAULT TRAFIC 2.0 DCI 8+1 SJEDIŠTA M/T RENAULT TRAFIC 2.0 DCI 8+1 SJEDIŠTA M/T 14.900 KM 21.06.2019
34268504 OPEL ANTARA 2.0 CDTI 2007 COSMO OPEL ANTARA 2.0 CDTI 2007 COSMO 13.990 KM 20.06.2019
26479436 MultiBrand servis za sva vozila MultiBrand servis za sva vozila Po dogovoru 19.06.2019
34256323 CITROEN C4 PICCASO 1.6 HDI A/T CITROEN C4 PICCASO 1.6 HDI A/T 12.900 KM 19.06.2019
32398395 ŠKODA YETI 1.2 TSi DSG STYLE 2010 A/T ID :017 ŠKODA YETI 1.2 TSi DSG STYLE 2010 A/T ID :017 13.550 KM 19.06.2019
33446652 BUNJOGRUPACIJA YESCAR RABLJENA VOZILA VELIKI IZBOR BUNJOGRUPACIJA YESCAR RABLJENA VOZILA VELIKI IZBOR Po dogovoru 19.06.2019
33621681 OPEL ASTRA SW 1.7 CDTi COSMO 2014 M/T ID : 088 OPEL ASTRA SW 1.7 CDTi COSMO 2014 M/T ID : 088 14.990 KM 19.06.2019
33154932 OPEL INSIGNIA 2.0 CDTI 2014 COSMO M/T ID :038 OPEL INSIGNIA 2.0 CDTI 2014 COSMO M/T ID :038 19.990 KM 19.06.2019
32095470 VOLKSWAGEN VW GOLF 6 VI 2.0 TDI 103 KW M/T ID :019 VOLKSWAGEN VW GOLF 6 VI 2.0 TDI 103 KW M/T ID :019 13.850 KM 19.06.2019
32145183 ŠKODA FABIA 1.0 MPI AMBIENT 75KS M/T ID: 004 ŠKODA FABIA 1.0 MPI AMBIENT 75KS M/T ID: 004 14.680 KM 19.06.2019
30945389 PEUGEOT 2008 1.6 HDi AUTOMATIC A/T ID :046 PEUGEOT 2008 1.6 HDi AUTOMATIC A/T ID :046 20.900 KM 19.06.2019
33124116 OPEL INSIGNIA 2.0 CDTi 2014 M/T ID :028 OPEL INSIGNIA 2.0 CDTi 2014 M/T ID :028 19.990 KM 19.06.2019
30198603 FIATA PANDA 1.2 BENZIN M/T FIATA PANDA 1.2 BENZIN M/T 15.500 KM 19.06.2019
33239216 PEUGEOT 5008 2.0 HDi 2011 AUTOMATIK ,7 Sjedista A/T ID : 074 PEUGEOT 5008 2.0 HDi 2011 AUTOMATIK ,7 Sjedista A/T ID : 074 18.900 KM 19.06.2019
25646117 NOVO FIAT 124 Spider 1.4 Multiair Turbo 140 NOVO FIAT 124 Spider 1.4 Multiair Turbo 140 66.168 KM 19.06.2019
33116367 OPEL ASTRA 1.6 i 2012 M/T ID : 026 OPEL ASTRA 1.6 i 2012 M/T ID : 026 10.900 KM 19.06.2019
33638842 PEUGEOT 208 1.4 HDi BUISSNIES ID : 096 PEUGEOT 208 1.4 HDi BUISSNIES ID : 096 12.699 KM 19.06.2019
29783432 Toyota Avensis 2.0 D-4D 2013 M/T Toyota Avensis 2.0 D-4D 2013 M/T 25.490 KM 19.06.2019
31524636 AUDI A3 SPORTBACK 2.0 TDI M/T ID :047 AUDI A3 SPORTBACK 2.0 TDI M/T ID :047 11.500 KM 19.06.2019
30683382 ***VELIKA AKCIJA***VW VOLKSWAGEN TOURAN 2.0 TDI DSG A/T ID :021 ***VELIKA AKCIJA***VW VOLKSWAGEN TOURAN 2.0 TDI DSG A/T ID :...... 27.700 KM 23.900 KM 19.06.2019
32294979 ŠKODA KAROQ 1.6 TDI STARTER PACK NOVO ŠKODA KAROQ 1.6 TDI STARTER PACK NOVO 39.945 KM 19.06.2019
30945588 ***GARANCIJA*** Fiat Punto 1.6 M-jet 2013 M/T ***GARANCIJA*** Fiat Punto 1.6 M-jet 2013 M/T 11.990 KM 19.06.2019
33087301 ŠKODA OCTAVIA STYLE COMBI 2016 1.6 TDI M/T ID :007 ŠKODA OCTAVIA STYLE COMBI 2016 1.6 TDI M/T ID :007 22.000 KM 19.06.2019
33085124 OPEL INSIGNIA 2.0 CDTi COSMO M/T ID : 070 OPEL INSIGNIA 2.0 CDTi COSMO M/T ID : 070 21.000 KM 19.06.2019
32145163 TOYOTA AVENSIS 2.0 i Elegant Automatic A/T ID :051 TOYOTA AVENSIS 2.0 i Elegant Automatic A/T ID :051 7.990 KM 19.06.2019
33155047 OPEL INSIGNIA 2.0CDTI 2014 M/T ID :030 OPEL INSIGNIA 2.0CDTI 2014 M/T ID :030 19.990 KM 19.06.2019
33146013 NOVA TOYOTA RAV4 2.5 VVT-I 2WD HYBRID ELEGANT NOVA TOYOTA RAV4 2.5 VVT-I 2WD HYBRID ELEGANT Po dogovoru 19.06.2019
32287171 ŠKODA OCTAVIA 1.6 TDI DSG STYLE 2015 COMBI ID :012 ŠKODA OCTAVIA 1.6 TDI DSG STYLE 2015 COMBI ID :012 23.990 KM 19.06.2019
32309352 TOYOTA AYGO 1.0 BENZIN M/T TOYOTA AYGO 1.0 BENZIN M/T 19.350 KM 19.06.2019
31214114 VOLKSWAGEN TOURAN 1.9 TDI 77kw M/T ID :022 VOLKSWAGEN TOURAN 1.9 TDI 77kw M/T ID :022 8.750 KM 19.06.2019
33765694 ***NOVO*** HONDA CR-V 1.5 T CVT AWD LIFESTYLE ***NOVO*** HONDA CR-V 1.5 T CVT AWD LIFESTYLE 78.486 KM 19.06.2019
33822687 CITROEN C4 1.6 HDI 2016 Exluziv CITROEN C4 1.6 HDI 2016 Exluziv 16.442 KM 19.06.2019
27904604 Peugeot 4007 2.2 HDI  AWD 2008 M/T Peugeot 4007 2.2 HDI AWD 2008 M/T 15.980 KM 19.06.2019
33948159 TOYOTA VERSO 2.2 DIZEL ID:117 TOYOTA VERSO 2.2 DIZEL ID:117 9.890 KM 19.06.2019
34245481 ŠKODA RAPID 1.2 TSI M/T *RATA 350 KM* ID : 016 ŠKODA RAPID 1.2 TSI M/T *RATA 350 KM* ID : 016 15.790 KM 19.06.2019
34244762 Poslovni prostor, Sarajevo, Ciglane, uz glavnu cestu Poslovni prostor, Sarajevo, Ciglane, uz glavnu cestu 3.500 KM 18.06.2019
31207431 ŠKODA OCTAVIA FUN 1.6 MPI M/T ŠKODA OCTAVIA FUN 1.6 MPI M/T 28.900 KM 18.06.2019
31464204 *RATA 752KM* SEAT LEON CUPRA 300 DSG 2017 GARANCIJA A/T *RATA 752KM* SEAT LEON CUPRA 300 DSG 2017 GARANCIJA A/T 55.000 KM 18.06.2019
31207294 ŠKODA RAPID 1.4 TDI M/T ŠKODA RAPID 1.4 TDI M/T 26.900 KM 18.06.2019
34135957 VW TIGUAN HIGHLINE 1.4 TSI 80.000km VW TIGUAN HIGHLINE 1.4 TSI 80.000km 30.000 KM 18.06.2019
31291140 PEUGEOT 407 SW 2.0 HDi A/T PEUGEOT 407 SW 2.0 HDi A/T 7.300 KM 18.06.2019
33305346 VOLKSWAGEN GOLF VII 1.6 TDI M/T VOLKSWAGEN GOLF VII 1.6 TDI M/T 23.550 KM 18.06.2019
34004654 TOYOTA CAMRY 2.5 HSD E-CVT EXECUTIVE HYBRID TOYOTA CAMRY 2.5 HSD E-CVT EXECUTIVE HYBRID 76.100 KM 18.06.2019
31798365 VW VOLKSWAGEN GOLF 5 V 1.9 TDI 77kw 2007 COBRA M/T VW VOLKSWAGEN GOLF 5 V 1.9 TDI 77kw 2007 COBRA M/T 7.700 KM 18.06.2019
33906025 MERCEDES - BENZ C220 90KW CLASIC 2005 M/T ID :029 MERCEDES - BENZ C220 90KW CLASIC 2005 M/T ID :029 9.590 KM 18.06.2019
34090531 VOLKSWAGEN PASSAT DSG A/T VOLKSWAGEN PASSAT DSG A/T 8.980 KM 18.06.2019
33085294 MERCEDES E200 E 200 CDI 2009 M/T ID : 067 MERCEDES E200 E 200 CDI 2009 M/T ID : 067 22.000 KM 18.06.2019
33930272 ŠKODA SUPERB 2.0 TDI 4X4 M/T ŠKODA SUPERB 2.0 TDI 4X4 M/T 45.950 KM 18.06.2019
21928013 RENAULT ESPACE 2.0 dCi full oprema 2008 GOD. RENAULT ESPACE 2.0 dCi full oprema 2008 GOD. 11.490 KM 18.06.2019
33084858 CITROEN C4 1.6 HDI 2016 EXCLUZIVE NAVI M/T ID :090 CITROEN C4 1.6 HDI 2016 EXCLUZIVE NAVI M/T ID :090 17.000 KM 18.06.2019
33113287 ŠKODA FABIA 1.2 HTP 2008 M/T ID: 002 ŠKODA FABIA 1.2 HTP 2008 M/T ID: 002 7.400 KM 18.06.2019
31170837 ***RATA 233KM*** Renault Laguna 2.0 DCI M/T ID : 040 ***RATA 233KM*** Renault Laguna 2.0 DCI M/T ID : 040 10.540 KM 18.06.2019
32177722 CITROEN C3 1.4 HDi 2013 M/T ID :042 CITROEN C3 1.4 HDi 2013 M/T ID :042 13.990 KM 18.06.2019
30683539 VW VOLKSWAGEN TOURAN 1.6 TDI 2013 M/T ID:020 VW VOLKSWAGEN TOURAN 1.6 TDI 2013 M/T ID:020 22.990 KM 18.06.2019
31032379 RENAULT GRAND SCENIC 1.5 DCI 7 SJEDISTA M/T ID : 039 RENAULT GRAND SCENIC 1.5 DCI 7 SJEDISTA M/T ID : 039 15.990 KM 18.06.2019
32145207 ŠKODA FABIA 1.0 MPI AMBIENT M/T ID : 006 ŠKODA FABIA 1.0 MPI AMBIENT M/T ID : 006 15.700 KM 18.06.2019
31253884 ŠKODA OCTAVIA Style 1.6 TDI M/T ID: 011 ŠKODA OCTAVIA Style 1.6 TDI M/T ID: 011 18.000 KM 18.06.2019
33773422 TOYOTA C-HR C-LUB 1.8 BENZIN /HYBRID TOYOTA C-HR C-LUB 1.8 BENZIN /HYBRID 45.690 KM 18.06.2019
32776453 ŠKODA OCTAVIA 1.9 TDI 77KW 2009 KOBRA ZASTITA ID: 009 ŠKODA OCTAVIA 1.9 TDI 77KW 2009 KOBRA ZASTITA ID: 009 11.590 KM 18.06.2019
31054455 OPEL INSIGNIA 2.0 CDTI COSMO ID :035  M/T GARANCIJA!!! OPEL INSIGNIA 2.0 CDTI COSMO ID :035 M/T GARANCIJA!!! 19.990 KM 18.06.2019
30758932 Toyota Avensis 2.0 D-4D 2014 M/T Toyota Avensis 2.0 D-4D 2014 M/T 31.490 KM 18.06.2019
31253332 ***NOVO*** Škoda Kodiaq 2.0 TDI DSG STYLE A/T ***NOVO*** Škoda Kodiaq 2.0 TDI DSG STYLE A/T 66.420 KM 18.06.2019
33112216 ŠKODA OCTAVIA STYLE 1.6 TDI M/T ID :008 ŠKODA OCTAVIA STYLE 1.6 TDI M/T ID :008 18.990 KM 18.06.2019
31244172 OPEL INSIGNIA 2.0 TDCI M/T GARANCIJA!!! ID :030 OPEL INSIGNIA 2.0 TDCI M/T GARANCIJA!!! ID :030 19.990 KM 18.06.2019
33102986 TOYOTA COROLLA 1.6 VVTi BASIC M/T TOYOTA COROLLA 1.6 VVTi BASIC M/T 22.000 KM 18.06.2019
33098121 RENAULT MEGANE 1.5 DCI DYNAMICE NAVI FULL M/T ID :076 RENAULT MEGANE 1.5 DCI DYNAMICE NAVI FULL M/T ID :076 16.700 KM 18.06.2019
33351362 ŠKODA OCTAVIA VRS 2.0 TSI DSG 245 KS PERFORMANCE ŠKODA OCTAVIA VRS 2.0 TSI DSG 245 KS PERFORMANCE 72.760 KM 18.06.2019
33765435 ***NOVO*** HONDA HR-V 1.5 i CVT ELEGANS ***NOVO*** HONDA HR-V 1.5 i CVT ELEGANS 59.957 KM 18.06.2019
33765001 ***NOVO*** HONDA CIVIC 5D CVT 1.5 T SPORT PLUS 134KW ***NOVO*** HONDA CIVIC 5D CVT 1.5 T SPORT PLUS 134KW 65.828 KM 18.06.2019
33765490 ***NOVO*** HONDA CIVIC 5D 1.0 T 120 KS ELEGANS ***NOVO*** HONDA CIVIC 5D 1.0 T 120 KS ELEGANS 54.157 KM 18.06.2019
34244724 PEUGEOT 307 1.6 HDi FACELIFT 2006 PEUGEOT 307 1.6 HDi FACELIFT 2006 5.690 KM 18.06.2019
34239138 TOYOTA YARIS 1.5 VVT-iE M/T6 TOYOTA YARIS 1.5 VVT-iE M/T6 "STELLA TREND" 23.350 KM 18.06.2019